createdAt,value
2017-08-11T00:01:20.973Z,17.23
2017-08-11T00:03:51.353Z,18.20
2017-08-11T00:06:21.971Z,13.20
2017-08-11T00:08:52.479Z,14.07
2017-08-11T00:11:22.779Z,18.43
2017-08-11T00:13:53.103Z,18.43
2017-08-11T00:16:23.645Z,22.90
2017-08-11T00:18:54.351Z,12.50
2017-08-11T00:21:24.916Z,12.80
2017-08-11T00:23:55.427Z,13.50
2017-08-11T00:26:26.061Z,18.20
2017-08-11T00:28:56.673Z,23.20
2017-08-11T00:31:27.321Z,20.13
2017-08-11T00:33:57.905Z,12.87
2017-08-11T00:36:28.415Z,16.53
2017-08-11T00:38:58.837Z,14.57
2017-08-11T00:41:29.349Z,10.00
2017-08-11T00:43:59.899Z,11.90
2017-08-11T00:46:30.326Z,12.10
2017-08-11T00:49:00.810Z,12.03
2017-08-11T00:51:32.211Z,15.73
2017-08-11T00:54:02.930Z,13.97
2017-08-11T00:56:33.374Z,7.20
2017-08-11T00:59:03.892Z,12.43
2017-08-11T01:01:34.388Z,10.20
2017-08-11T01:04:05.664Z,8.50
2017-08-11T01:06:36.046Z,6.03
2017-08-11T01:09:06.399Z,10.27
2017-08-11T01:11:36.922Z,11.00
2017-08-11T01:14:08.119Z,13.23
2017-08-11T01:16:38.654Z,14.53
2017-08-11T01:19:09.135Z,15.23
2017-08-11T01:21:39.768Z,8.50
2017-08-11T01:24:10.293Z,10.70
2017-08-11T01:26:41.589Z,8.80
2017-08-11T01:29:12.106Z,12.17
2017-08-11T01:31:42.652Z,10.77
2017-08-11T01:34:13.210Z,12.03
2017-08-11T01:36:43.543Z,15.77
2017-08-11T01:39:14.034Z,16.13
2017-08-11T01:41:44.462Z,11.93
2017-08-11T01:44:14.996Z,8.80
2017-08-11T01:46:45.389Z,7.23
2017-08-11T01:49:16.013Z,6.80
2017-08-11T01:51:46.257Z,6.63
2017-08-11T01:54:17.501Z,11.23
2017-08-11T01:56:48.030Z,3.93
2017-08-11T01:59:18.593Z,8.50
2017-08-11T02:01:49.228Z,5.97
2017-08-11T02:04:21.645Z,16.00
2017-08-11T02:06:52.963Z,14.60
2017-08-11T02:09:23.497Z,7.23
2017-08-11T02:11:54.141Z,6.77
2017-08-11T02:14:25.884Z,4.63
2017-08-11T02:16:57.092Z,4.80
2017-08-11T02:19:27.674Z,7.53
2017-08-11T02:21:58.190Z,3.57
2017-08-11T02:24:28.769Z,2.00
2017-08-11T02:27:00.007Z,3.97
2017-08-11T02:29:30.533Z,6.90
2017-08-11T02:32:01.311Z,4.63
2017-08-11T02:34:31.846Z,2.30
2017-08-11T02:37:02.481Z,6.10
2017-08-11T02:39:32.943Z,5.50
2017-08-11T02:42:03.546Z,5.40
2017-08-11T02:44:34.067Z,2.00
2017-08-11T02:47:04.521Z,6.40
2017-08-11T02:49:34.931Z,7.00
2017-08-11T02:52:05.441Z,11.33
2017-08-11T02:54:36.223Z,4.53
2017-08-11T02:57:06.584Z,2.93
2017-08-11T02:59:37.636Z,3.23
2017-08-11T03:02:08.006Z,6.37
2017-08-11T03:04:38.462Z,2.17
2017-08-11T03:07:08.814Z,3.00
2017-08-11T03:09:42.339Z,9.20
2017-08-11T03:12:12.946Z,2.43
2017-08-11T03:14:46.864Z,4.03
2017-08-11T03:17:17.919Z,1.50
2017-08-11T03:19:48.406Z,1.30
2017-08-11T03:22:18.871Z,1.57
2017-08-11T03:24:49.532Z,1.27
2017-08-11T03:27:20.345Z,1.43
2017-08-11T03:29:50.899Z,2.93
2017-08-11T03:32:21.530Z,1.80
2017-08-11T03:34:52.080Z,3.63
2017-08-11T03:37:22.711Z,1.10
2017-08-11T03:39:53.505Z,1.70
2017-08-11T03:42:24.167Z,1.13
2017-08-11T03:44:54.739Z,1.00
2017-08-11T03:47:26.010Z,1.90
2017-08-11T03:49:57.373Z,1.43
2017-08-11T03:52:27.820Z,1.30
2017-08-11T03:54:58.397Z,1.60
2017-08-11T03:57:28.786Z,2.97
2017-08-11T03:59:59.343Z,1.87
2017-08-11T04:02:29.891Z,1.80
2017-08-11T04:05:00.303Z,1.40
2017-08-11T04:07:30.926Z,4.70
2017-08-11T04:10:01.616Z,1.40
2017-08-11T04:12:32.799Z,2.43
2017-08-11T04:15:03.147Z,2.03
2017-08-11T04:17:33.534Z,1.30
2017-08-11T04:20:04.391Z,2.40
2017-08-11T04:22:35.783Z,2.20
2017-08-11T04:25:06.228Z,2.10
2017-08-11T04:27:36.772Z,3.57
2017-08-11T04:30:07.228Z,2.73
2017-08-11T04:32:37.626Z,1.00
2017-08-11T04:35:09.007Z,0.83
2017-08-11T04:37:39.514Z,1.00
2017-08-11T04:40:10.078Z,1.20
2017-08-11T04:42:40.523Z,1.33
2017-08-11T04:45:11.065Z,2.47
2017-08-11T04:47:41.566Z,2.87
2017-08-11T04:50:12.032Z,1.40
2017-08-11T04:52:42.247Z,1.73
2017-08-11T04:55:13.576Z,4.87
2017-08-11T04:57:44.051Z,2.20
2017-08-11T05:00:15.254Z,1.73
2017-08-11T05:02:45.843Z,1.40
2017-08-11T05:05:16.356Z,2.40
2017-08-11T05:07:47.445Z,1.00
2017-08-11T05:10:17.881Z,4.20
2017-08-11T05:12:48.379Z,1.97
2017-08-11T05:15:18.928Z,3.07
2017-08-11T05:17:49.526Z,1.70
2017-08-11T05:20:20.924Z,2.57
2017-08-11T05:22:51.374Z,1.43
2017-08-11T05:25:21.766Z,1.60
2017-08-11T05:27:52.282Z,1.33
2017-08-11T05:30:22.805Z,2.03
2017-08-11T05:32:53.438Z,4.33
2017-08-11T05:35:24.553Z,3.97
2017-08-11T05:37:55.006Z,8.03
2017-08-11T05:40:25.363Z,1.37
2017-08-11T05:42:56.006Z,1.20
2017-08-11T05:45:26.500Z,4.10
2017-08-11T05:47:57.690Z,1.80
2017-08-11T05:50:28.190Z,1.57
2017-08-11T05:52:58.646Z,1.87
2017-08-11T05:55:29.382Z,10.57
2017-08-11T05:57:59.877Z,10.43
2017-08-11T06:00:30.433Z,2.60
2017-08-11T06:03:00.903Z,3.63
2017-08-11T06:05:31.415Z,1.63
2017-08-11T06:08:02.024Z,3.03
2017-08-11T06:10:32.655Z,2.40
2017-08-11T06:13:03.065Z,1.13
2017-08-11T06:15:33.626Z,3.90
2017-08-11T06:18:04.162Z,8.60
2017-08-11T06:20:34.482Z,3.00
2017-08-11T06:23:04.837Z,1.63
2017-08-11T06:25:35.354Z,1.67
2017-08-11T06:28:05.968Z,3.03
2017-08-11T06:30:36.523Z,1.40
2017-08-11T06:33:06.997Z,4.63
2017-08-11T06:35:38.218Z,6.20
2017-08-11T06:38:08.777Z,1.93
2017-08-11T06:40:40.041Z,2.50
2017-08-11T06:43:13.755Z,1.27
2017-08-11T06:45:44.265Z,3.40
2017-08-11T06:48:15.806Z,1.77
2017-08-11T06:50:47.110Z,1.93
2017-08-11T06:53:17.714Z,2.40
2017-08-11T06:55:48.321Z,3.53
2017-08-11T06:58:18.907Z,3.20
2017-08-11T07:00:49.498Z,1.93
2017-08-11T07:03:20.050Z,1.30
2017-08-11T07:05:50.884Z,1.00
2017-08-11T07:08:21.486Z,1.57
2017-08-11T07:10:52.603Z,2.97
2017-08-11T07:13:23.098Z,2.93
2017-08-11T07:15:53.523Z,1.47
2017-08-11T07:18:24.048Z,3.23
2017-08-11T07:20:54.533Z,1.20
2017-08-11T07:23:25.011Z,1.73
2017-08-11T07:25:55.651Z,3.53
2017-08-11T07:28:26.193Z,2.17
2017-08-11T07:30:56.810Z,1.83
2017-08-11T07:33:27.442Z,1.97
2017-08-11T07:35:58.007Z,1.87
2017-08-11T07:38:28.467Z,1.37
2017-08-11T07:40:59.835Z,1.50
2017-08-11T07:43:30.482Z,2.70
2017-08-11T07:46:01.052Z,3.67
2017-08-11T07:48:31.632Z,2.67
2017-08-11T07:51:02.974Z,4.40
2017-08-11T07:53:34.355Z,2.73
2017-08-11T07:56:05.237Z,3.07
2017-08-11T07:58:35.805Z,1.50
2017-08-11T08:01:06.416Z,2.20
2017-08-11T08:03:37.054Z,5.63
2017-08-11T08:06:08.325Z,3.33
2017-08-11T08:08:38.901Z,3.60
2017-08-11T08:11:09.464Z,2.87
2017-08-11T08:13:40.680Z,2.57
2017-08-11T08:16:11.167Z,2.93
2017-08-11T08:18:41.733Z,3.10
2017-08-11T08:21:12.258Z,7.77
2017-08-11T08:23:42.754Z,3.00
2017-08-11T08:26:13.255Z,4.60
2017-08-11T08:28:43.911Z,8.10
2017-08-11T08:31:15.174Z,2.00
2017-08-11T08:33:45.616Z,6.23
2017-08-11T08:36:16.019Z,9.20
2017-08-11T08:38:46.550Z,5.43
2017-08-11T08:41:17.807Z,3.80
2017-08-11T08:43:48.439Z,3.13
2017-08-11T08:46:18.938Z,2.07
2017-08-11T08:48:49.499Z,2.70
2017-08-11T08:51:19.973Z,7.73
2017-08-11T08:53:50.555Z,8.20
2017-08-11T08:56:21.977Z,8.23
2017-08-11T08:58:52.387Z,4.73
2017-08-11T09:01:22.865Z,3.30
2017-08-11T09:03:53.307Z,5.00
2017-08-11T09:06:23.742Z,3.77
2017-08-11T09:08:54.256Z,3.17
2017-08-11T09:11:24.740Z,2.30
2017-08-11T09:13:55.316Z,5.97
2017-08-11T09:16:25.710Z,2.70
2017-08-11T09:18:56.295Z,1.63
2017-08-11T09:21:26.790Z,1.43
2017-08-11T09:23:57.953Z,3.50
2017-08-11T09:26:38.938Z,2.00
2017-08-11T09:29:20.231Z,3.13
2017-08-11T09:32:01.910Z,5.60
2017-08-11T09:34:43.475Z,2.40
2017-08-11T09:37:14.005Z,7.10
2017-08-11T09:39:50.341Z,5.13
2017-08-11T09:42:20.730Z,3.00
2017-08-11T09:44:51.271Z,3.70
2017-08-11T09:47:21.770Z,2.50
2017-08-11T09:49:52.972Z,2.50
2017-08-11T09:52:23.370Z,10.10
2017-08-11T09:54:53.821Z,6.13
2017-08-11T09:57:24.617Z,9.30
2017-08-11T09:59:55.052Z,2.27
2017-08-11T10:02:25.633Z,5.57
2017-08-11T10:04:56.123Z,3.57
2017-08-11T10:07:26.939Z,4.20
2017-08-11T10:09:58.133Z,2.80
2017-08-11T10:12:28.454Z,7.70
2017-08-11T10:14:58.982Z,6.20
2017-08-11T10:17:29.460Z,6.30
2017-08-11T10:20:00.136Z,2.40
2017-08-11T10:22:31.614Z,1.63
2017-08-11T10:25:01.934Z,4.80
2017-08-11T10:27:32.708Z,4.80
2017-08-11T10:30:03.073Z,6.33
2017-08-11T10:32:33.687Z,4.17
2017-08-11T10:35:04.164Z,3.53
2017-08-11T10:37:34.757Z,2.80
2017-08-11T10:40:05.377Z,2.57
2017-08-11T10:42:35.882Z,3.83
2017-08-11T10:45:06.451Z,3.33
2017-08-11T10:47:37.928Z,11.73
2017-08-11T10:50:09.252Z,5.07
2017-08-11T10:52:39.841Z,4.30
2017-08-11T10:55:10.445Z,5.00
2017-08-11T10:57:41.503Z,4.47
2017-08-11T11:00:12.101Z,2.83
2017-08-11T11:02:42.719Z,4.10
2017-08-11T11:05:13.216Z,2.07
2017-08-11T11:07:43.784Z,4.87
2017-08-11T11:10:14.461Z,7.77
2017-08-11T11:12:44.983Z,5.03
2017-08-11T11:15:15.354Z,8.37
2017-08-11T11:17:46.723Z,5.37
2017-08-11T11:20:17.347Z,4.83
2017-08-11T11:22:48.813Z,5.30
2017-08-11T11:25:19.177Z,8.10
2017-08-11T11:27:49.761Z,5.43
2017-08-11T11:30:21.107Z,9.83
2017-08-11T11:32:52.456Z,10.30
2017-08-11T11:35:23.748Z,5.43
2017-08-11T11:37:54.294Z,12.67
2017-08-11T11:40:24.808Z,11.27
2017-08-11T11:42:55.418Z,20.97
2017-08-11T11:45:26.280Z,11.03
2017-08-11T11:47:56.805Z,15.27
2017-08-11T11:50:27.234Z,22.47
2017-08-11T11:52:57.841Z,13.80
2017-08-11T11:55:29.020Z,14.00
2017-08-11T11:57:59.839Z,12.60
2017-08-11T12:00:30.306Z,20.20
2017-08-11T12:03:00.891Z,12.70
2017-08-11T12:05:31.454Z,9.13
2017-08-11T12:08:02.046Z,4.90
2017-08-11T12:10:33.228Z,8.57
2017-08-11T12:13:03.755Z,7.90
2017-08-11T12:15:36.212Z,13.07
2017-08-11T12:18:06.744Z,10.27
2017-08-11T12:20:37.221Z,7.63
2017-08-11T12:23:07.876Z,17.57
2017-08-11T12:25:44.001Z,14.80
2017-08-11T12:28:14.495Z,14.10
2017-08-11T12:30:45.012Z,10.03
2017-08-11T12:33:17.124Z,23.90
2017-08-11T12:35:47.545Z,15.93
2017-08-11T12:38:18.152Z,12.60
2017-08-11T12:40:49.266Z,13.00
2017-08-11T12:43:19.740Z,12.33
2017-08-11T12:45:50.427Z,10.00
2017-08-11T12:48:21.343Z,15.20
2017-08-11T12:50:51.759Z,17.30
2017-08-11T12:53:22.430Z,4.30
2017-08-11T12:55:52.884Z,11.60
2017-08-11T12:58:24.162Z,7.87
2017-08-11T13:00:54.636Z,10.00
2017-08-11T13:03:25.066Z,8.70
2017-08-11T13:05:55.478Z,8.03
2017-08-11T13:08:25.846Z,11.20
2017-08-11T13:10:57.160Z,10.33
2017-08-11T13:13:27.564Z,12.00
2017-08-11T13:15:58.071Z,12.93
2017-08-11T13:18:28.616Z,8.70
2017-08-11T13:20:59.026Z,11.90
2017-08-11T13:23:29.421Z,8.20
2017-08-11T13:25:59.936Z,17.43
2017-08-11T13:28:30.235Z,9.70
2017-08-11T13:31:00.809Z,13.43
2017-08-11T13:33:31.265Z,7.30
2017-08-11T13:36:01.881Z,12.70
2017-08-11T13:38:32.409Z,14.33
2017-08-11T13:41:03.812Z,10.30
2017-08-11T13:43:34.278Z,16.63
2017-08-11T13:46:04.881Z,10.13
2017-08-11T13:48:35.425Z,6.00
2017-08-11T13:51:05.732Z,14.27
2017-08-11T13:53:36.118Z,7.90
2017-08-11T13:56:06.483Z,8.70
2017-08-11T13:58:37.361Z,10.37
2017-08-11T14:01:07.976Z,8.10
2017-08-11T14:03:39.359Z,14.57
2017-08-11T14:06:10.625Z,4.70
2017-08-11T14:08:41.165Z,9.50
2017-08-11T14:11:12.575Z,5.77
2017-08-11T14:13:43.087Z,4.50
2017-08-11T14:16:13.531Z,5.87
2017-08-11T14:18:43.959Z,5.47
2017-08-11T14:21:14.880Z,18.13
2017-08-11T14:23:51.412Z,5.00
2017-08-11T14:26:22.047Z,5.30
2017-08-11T14:28:52.602Z,8.43
2017-08-11T14:31:24.094Z,8.67
2017-08-11T14:33:54.627Z,5.90
2017-08-11T14:36:25.030Z,5.17
2017-08-11T14:38:55.401Z,6.80
2017-08-11T14:41:26.015Z,3.70
2017-08-11T14:43:56.370Z,7.07
2017-08-11T14:46:27.773Z,11.27
2017-08-11T14:48:58.234Z,5.37
2017-08-11T14:51:28.903Z,8.53
2017-08-11T14:53:59.530Z,6.17
2017-08-11T14:56:31.875Z,8.57
2017-08-11T14:59:03.604Z,7.90
2017-08-11T15:01:34.393Z,8.43
2017-08-11T15:04:05.012Z,4.90
2017-08-11T15:06:36.307Z,7.50
2017-08-11T15:09:07.013Z,4.73
2017-08-11T15:11:37.382Z,11.63
2017-08-11T15:14:07.866Z,10.97
2017-08-11T15:16:38.416Z,6.77
2017-08-11T15:19:09.286Z,11.60
2017-08-11T15:21:39.866Z,6.00
2017-08-11T15:24:10.400Z,5.80
2017-08-11T15:26:41.101Z,4.30
2017-08-11T15:29:12.636Z,10.97
2017-08-11T15:31:43.217Z,4.53
2017-08-11T15:34:14.661Z,3.10
2017-08-11T15:36:45.909Z,6.50
2017-08-11T15:39:16.848Z,6.13
2017-08-11T15:41:47.495Z,11.63
2017-08-11T15:44:18.100Z,10.20
2017-08-11T15:46:48.695Z,5.10
2017-08-11T15:49:19.264Z,14.23
2017-08-11T15:51:50.575Z,5.37
2017-08-11T15:54:20.969Z,6.50
2017-08-11T15:56:51.514Z,8.50
2017-08-11T15:59:22.128Z,6.90
2017-08-11T16:01:53.419Z,15.80
2017-08-11T16:04:23.881Z,11.13
2017-08-11T16:06:54.545Z,16.60
2017-08-11T16:09:25.027Z,12.33
2017-08-11T16:11:55.636Z,10.67
2017-08-11T16:14:26.939Z,9.73
2017-08-11T16:16:57.542Z,15.43
2017-08-11T16:19:28.586Z,9.57
2017-08-11T16:21:59.093Z,10.20
2017-08-11T16:24:29.562Z,9.63
2017-08-11T16:27:00.675Z,5.47
2017-08-11T16:29:31.143Z,6.70
2017-08-11T16:32:01.614Z,13.33
2017-08-11T16:34:32.784Z,7.70
2017-08-11T16:37:03.261Z,6.53
2017-08-11T16:39:34.542Z,8.10
2017-08-11T16:42:05.202Z,7.57
2017-08-11T16:44:35.673Z,7.03
2017-08-11T16:47:06.649Z,6.27
2017-08-11T16:49:37.221Z,11.47
2017-08-11T16:52:07.406Z,9.57
2017-08-11T16:54:37.816Z,13.60
2017-08-11T16:57:08.171Z,6.50
2017-08-11T16:59:39.645Z,4.87
2017-08-11T17:02:09.942Z,4.60
2017-08-11T17:04:40.485Z,2.53
2017-08-11T17:07:10.910Z,9.60
2017-08-11T17:09:42.041Z,3.00
2017-08-11T17:12:12.358Z,2.80
2017-08-11T17:14:42.914Z,2.90
2017-08-11T17:17:13.303Z,4.33
2017-08-11T17:19:43.831Z,2.27
2017-08-11T17:22:15.114Z,2.10
2017-08-11T17:24:45.710Z,2.00
2017-08-11T17:27:17.064Z,2.20
2017-08-11T17:29:47.578Z,4.43
2017-08-11T17:32:18.234Z,3.97
2017-08-11T17:34:48.834Z,4.17
2017-08-11T17:37:20.022Z,3.50
2017-08-11T17:39:50.541Z,5.40
2017-08-11T17:42:21.714Z,3.27
2017-08-11T17:44:52.180Z,3.23
2017-08-11T17:47:22.576Z,4.00
2017-08-11T17:49:53.092Z,2.70
2017-08-11T17:52:23.607Z,2.73
2017-08-11T17:54:54.110Z,3.27
2017-08-11T17:57:24.573Z,2.50
2017-08-11T17:59:55.566Z,3.43
2017-08-11T18:02:26.033Z,2.23
2017-08-11T18:04:56.560Z,2.93
2017-08-11T18:07:27.833Z,3.43
2017-08-11T18:09:58.351Z,2.80
2017-08-11T18:12:28.933Z,3.53
2017-08-11T18:14:59.382Z,2.70
2017-08-11T18:17:30.673Z,5.80
2017-08-11T18:20:01.198Z,4.60
2017-08-11T18:22:31.636Z,3.63
2017-08-11T18:25:02.136Z,3.27
2017-08-11T18:27:33.257Z,3.37
2017-08-11T18:30:03.869Z,3.80
2017-08-11T18:32:34.361Z,4.07
2017-08-11T18:35:04.963Z,3.13
2017-08-11T18:37:35.425Z,2.80
2017-08-11T18:40:06.028Z,3.13
2017-08-11T18:42:36.578Z,7.03
2017-08-11T18:45:07.207Z,4.63
2017-08-11T18:47:38.097Z,4.03
2017-08-11T18:50:08.674Z,2.50
2017-08-11T18:52:39.882Z,7.03
2017-08-11T18:55:10.099Z,3.33
2017-08-11T18:57:40.678Z,5.63
2017-08-11T19:00:12.571Z,14.77
2017-08-11T19:02:43.200Z,5.23
2017-08-11T19:05:13.850Z,3.00
2017-08-11T19:07:44.205Z,5.20
2017-08-11T19:10:14.691Z,6.37
2017-08-11T19:12:45.241Z,3.80
2017-08-11T19:15:15.709Z,4.73
2017-08-11T19:17:46.299Z,4.70
2017-08-11T19:20:16.678Z,7.93
2017-08-11T19:22:48.217Z,4.83
2017-08-11T19:25:18.672Z,7.50
2017-08-11T19:27:49.266Z,10.00
2017-08-11T19:30:19.713Z,6.70
2017-08-11T19:32:50.274Z,6.13
2017-08-11T19:35:20.948Z,7.53
2017-08-11T19:37:51.520Z,21.73
2017-08-11T19:40:22.110Z,7.80
2017-08-11T19:42:52.730Z,11.33
2017-08-11T19:45:23.366Z,8.03
2017-08-11T19:47:54.102Z,5.70
2017-08-11T19:50:24.766Z,2.60
2017-08-11T19:52:55.267Z,1.10
2017-08-11T19:55:25.655Z,2.00
2017-08-11T19:57:56.245Z,1.83
2017-08-11T20:00:27.260Z,2.67
2017-08-11T20:02:57.769Z,4.23
2017-08-11T20:05:28.253Z,2.20
2017-08-11T20:07:58.545Z,2.03
2017-08-11T20:10:29.694Z,2.47
2017-08-11T20:13:00.425Z,11.17
2017-08-11T20:15:30.879Z,17.43
2017-08-11T20:18:01.442Z,10.67
2017-08-11T20:20:32.021Z,8.80
2017-08-11T20:23:02.601Z,6.63
2017-08-11T20:25:33.174Z,4.80
2017-08-11T20:28:03.741Z,8.33
2017-08-11T20:30:34.326Z,2.07
2017-08-11T20:33:04.909Z,3.83
2017-08-11T20:35:35.488Z,2.10
2017-08-11T20:38:06.153Z,4.73
2017-08-11T20:40:36.637Z,4.87
2017-08-11T20:43:07.272Z,3.20
2017-08-11T20:45:37.954Z,1.57
2017-08-11T20:48:08.562Z,3.43
2017-08-11T20:50:39.121Z,4.27
2017-08-11T20:53:09.743Z,3.73
2017-08-11T20:55:40.091Z,2.13
2017-08-11T20:58:10.614Z,1.10
2017-08-11T21:00:41.311Z,2.70
2017-08-11T21:03:11.827Z,1.53
2017-08-11T21:05:42.471Z,3.00
2017-08-11T21:08:13.059Z,2.50
2017-08-11T21:10:43.740Z,4.10
2017-08-11T21:13:14.209Z,9.80
2017-08-11T21:15:44.787Z,2.07
2017-08-11T21:18:15.422Z,2.70
2017-08-11T21:20:46.693Z,2.03
2017-08-11T21:23:17.222Z,2.40
2017-08-11T21:25:47.780Z,1.50
2017-08-11T21:28:18.266Z,1.50
2017-08-11T21:30:49.094Z,1.53
2017-08-11T21:33:19.697Z,2.43
2017-08-11T21:35:50.159Z,1.63
2017-08-11T21:38:20.814Z,2.67
2017-08-11T21:40:51.387Z,1.33
2017-08-11T21:43:21.934Z,2.13
2017-08-11T21:45:52.506Z,1.47
2017-08-11T21:48:23.102Z,1.40
2017-08-11T21:50:53.695Z,2.43
2017-08-11T21:53:24.323Z,4.50
2017-08-11T21:55:54.959Z,1.80
2017-08-11T21:58:25.592Z,2.03
2017-08-11T22:00:56.315Z,2.20
2017-08-11T22:03:26.782Z,2.33
2017-08-11T22:05:57.278Z,1.20
2017-08-11T22:08:27.821Z,1.63
2017-08-11T22:10:58.243Z,1.50
2017-08-11T22:13:28.757Z,3.53
2017-08-11T22:15:59.368Z,0.90
2017-08-11T22:18:30.020Z,2.47
2017-08-11T22:21:00.531Z,2.70
2017-08-11T22:23:31.211Z,2.60
2017-08-11T22:26:01.776Z,12.23
2017-08-11T22:28:32.385Z,2.50
2017-08-11T22:31:03.007Z,4.03
2017-08-11T22:33:33.739Z,2.57
2017-08-11T22:36:04.053Z,5.13
2017-08-11T22:38:34.525Z,3.63
2017-08-11T22:41:05.022Z,2.63
2017-08-11T22:43:35.659Z,2.70
2017-08-11T22:46:06.260Z,4.63
2017-08-11T22:48:36.907Z,2.00
2017-08-11T22:51:07.530Z,3.60
2017-08-11T22:53:38.803Z,3.27
2017-08-11T22:56:09.507Z,1.33
2017-08-11T22:58:40.872Z,1.53
2017-08-11T23:01:11.924Z,1.10
2017-08-11T23:03:42.821Z,1.40
2017-08-11T23:06:13.309Z,4.17
2017-08-11T23:08:43.714Z,2.60
2017-08-11T23:11:14.295Z,5.47
2017-08-11T23:13:44.852Z,2.93
2017-08-11T23:16:15.531Z,3.10
2017-08-11T23:18:46.125Z,2.87
2017-08-11T23:21:16.747Z,6.33
2017-08-11T23:23:47.327Z,13.30
2017-08-11T23:26:17.876Z,8.57
2017-08-11T23:28:48.240Z,5.23
2017-08-11T23:31:18.834Z,3.33
2017-08-11T23:33:49.393Z,5.63
2017-08-11T23:36:19.755Z,11.50
2017-08-11T23:38:50.306Z,6.87
2017-08-11T23:41:20.922Z,9.33
2017-08-11T23:43:51.466Z,5.73
2017-08-11T23:46:21.985Z,6.20
2017-08-11T23:48:53.390Z,4.10
2017-08-11T23:51:24.419Z,5.10
2017-08-11T23:53:55.747Z,5.40
2017-08-11T23:56:26.791Z,3.63
2017-08-11T23:58:57.407Z,9.60
